KSYR/SYR METAR and TAF weather

Enter ICAO airport designator
Station Type Date Time Source
KSYR METAR 2019/08/24 17:54 UTC NOAA

KSYR 241754Z 36008KT 10SM FEW040 OVC050 21/11 A3026 RMK AO2 SLP243 T02060106 10206 20150 56003


Station Type Date Time Source
KSYR Decoded METAR 2019/08/24 17:54 UTC NOAA

Station name not available
Aug 24, 2019 - 01:54 PM EDT / 2019.08.24 1754 UTC
Wind: from the N (360 degrees) at 9 MPH (8 KT):0
Visibility: 10 mile(s):0
Sky conditions: overcast
Temperature: 69.1 F (20.6 C)
Dew Point: 51.1 F (10.6 C)
Relative Humidity: 52%
Pressure (altimeter): 30.26 in. Hg (1024 hPa)
Pressure tendency: 0.01 inches (0.3 hPa) lower than three hours ago
ob: KSYR 241754Z 36008KT 10SM FEW040 OVC050 21/11 A3026 RMK AO2 SLP243 T02060106 10206 20150 56003
cycle: 18

Station Type Date Time Source
KSYR TAF 2019/08/24 18:22 UTC NOAA

TAF KSYR 241720Z 2418/2518 35005KT P6SM BKN050
FM250000 VRB04KT P6SM SCT250
FM251400 10004KT P6SM BKN050

Example: see airport list